Time;durP1;ratioP1;P1;durP2;ratioP2;P2;SDS_P1;SDS_P2;PMS_P1;PMS_P2;Temp;Humidity;BMP_temperature;BMP_pressure;BME280_temperature;BME280_humidity;BME280_pressure;Samples;Min_cycle;Max_cycle;Signal;HPM_P1;HPM_P2
2021/10/18 00:01:59;;;;;;;21.60;16.13;;;12.20;99.90;;;;;;5072310;28;20250;-60
2021/10/18 00:04:27;;;;;;;21.63;16.00;;;12.20;99.90;;;;;;5071941;28;20587;-60
2021/10/18 00:06:55;;;;;;;20.93;15.33;;;12.20;99.90;;;;;;5070867;28;20231;-61
2021/10/18 00:09:21;;;;;;;20.57;15.63;;;12.20;99.90;;;;;;5072215;28;20262;-58
2021/10/18 00:11:48;;;;;;;21.93;16.13;;;12.20;99.90;;;;;;5072207;28;20672;-60
2021/10/18 00:14:15;;;;;;;21.03;15.60;;;12.20;99.90;;;;;;5072011;28;20529;-60
2021/10/18 00:16:41;;;;;;;20.23;15.80;;;12.30;99.90;;;;;;5071836;28;20283;-60
2021/10/18 00:19:09;;;;;;;21.33;16.07;;;12.30;99.90;;;;;;5071580;28;20721;-59
2021/10/18 00:21:36;;;;;;;21.37;15.30;;;12.30;99.90;;;;;;5071716;28;20208;-60
2021/10/18 00:24:05;;;;;;;21.73;15.97;;;12.30;99.90;;;;;;5071361;28;20229;-60
2021/10/18 00:26:32;;;;;;;20.83;16.00;;;12.40;99.90;;;;;;5071744;28;20247;-61
2021/10/18 00:28:59;;;;;;;23.00;16.63;;;12.20;99.90;;;;;;5071615;28;20208;-60
2021/10/18 00:31:26;;;;;;;20.47;15.93;;;12.20;99.90;;;;;;5071490;28;20201;-60
2021/10/18 00:33:52;;;;;;;22.97;17.07;;;12.30;99.90;;;;;;5071485;28;20205;-60
2021/10/18 00:36:19;;;;;;;21.43;17.07;;;12.30;99.90;;;;;;5072046;28;20236;-60
2021/10/18 00:38:46;;;;;;;20.47;16.37;;;12.30;99.90;;;;;;5071547;28;20266;-61
2021/10/18 00:41:14;;;;;;;22.93;17.37;;;12.00;99.90;;;;;;5071669;28;20205;-61
2021/10/18 00:43:45;;;;;;;21.30;16.50;;;11.80;99.90;;;;;;5071223;28;20225;-61
2021/10/18 00:46:12;;;;;;;21.30;16.13;;;11.80;99.90;;;;;;5071375;28;20225;-61
2021/10/18 00:48:39;;;;;;;21.03;16.70;;;11.80;99.90;;;;;;5071232;28;20259;-61
2021/10/18 00:51:06;;;;;;;24.30;17.40;;;11.90;99.90;;;;;;5071144;28;20209;-61
2021/10/18 00:53:34;;;;;;;24.63;18.20;;;12.00;99.90;;;;;;5070982;28;20608;-61
2021/10/18 00:56:01;;;;;;;21.17;16.77;;;12.10;99.90;;;;;;5071080;28;20748;-61
2021/10/18 00:58:30;;;;;;;25.33;18.03;;;12.20;99.90;;;;;;5071167;28;20684;-61
2021/10/18 01:00:57;;;;;;;25.10;19.03;;;12.20;99.90;;;;;;5071249;28;20209;-61
2021/10/18 01:03:25;;;;;;;25.80;18.70;;;12.20;99.90;;;;;;5071196;28;20220;-60
2021/10/18 01:05:52;;;;;;;24.27;18.27;;;12.30;99.90;;;;;;5071645;28;20201;-60
2021/10/18 01:08:20;;;;;;;25.67;19.03;;;12.20;99.90;;;;;;5071764;28;20205;-60
2021/10/18 01:10:47;;;;;;;26.10;19.13;;;12.00;99.90;;;;;;5071433;28;20200;-60
2021/10/18 01:13:13;;;;;;;25.70;18.50;;;11.70;99.90;;;;;;5071403;28;20254;-60
2021/10/18 01:15:42;;;;;;;25.70;18.90;;;11.60;99.90;;;;;;5070960;28;20211;-62
2021/10/18 01:18:08;;;;;;;29.00;18.83;;;11.70;99.90;;;;;;5070899;28;20624;-61
2021/10/18 01:20:39;;;;;;;27.90;19.93;;;11.70;99.90;;;;;;5071121;28;20558;-61
2021/10/18 01:23:08;;;;;;;26.63;19.80;;;11.70;99.90;;;;;;5071402;28;20201;-61
2021/10/18 01:25:35;;;;;;;25.80;19.30;;;11.80;99.90;;;;;;5070961;28;20607;-62
2021/10/18 01:28:01;;;;;;;26.17;19.97;;;11.70;99.90;;;;;;5070665;28;20225;-61
2021/10/18 01:30:29;;;;;;;26.53;19.33;;;11.50;99.90;;;;;;5070697;28;20672;-61
2021/10/18 01:32:56;;;;;;;31.73;23.40;;;11.50;99.90;;;;;;5070856;28;20208;-61
2021/10/18 01:35:23;;;;;;;25.53;19.37;;;11.50;99.90;;;;;;5070781;28;20669;-61
2021/10/18 01:37:52;;;;;;;25.83;19.53;;;11.50;99.90;;;;;;5070885;28;20228;-60
2021/10/18 01:40:21;;;;;;;26.67;19.70;;;11.60;99.90;;;;;;5071234;28;20204;-61
2021/10/18 01:42:48;;;;;;;27.53;18.87;;;11.70;99.90;;;;;;5071138;28;20592;-61
2021/10/18 01:45:17;;;;;;;25.93;18.67;;;11.70;99.90;;;;;;5070271;28;20240;-61
2021/10/18 01:47:43;;;;;;;25.20;17.83;;;11.70;99.90;;;;;;5070854;28;20700;-62
2021/10/18 01:50:12;;;;;;;27.27;18.23;;;11.70;99.90;;;;;;5070888;28;20223;-61
2021/10/18 01:52:39;;;;;;;24.73;17.60;;;11.80;99.90;;;;;;5070852;28;20677;-61
2021/10/18 01:55:09;;;;;;;25.33;17.37;;;11.70;99.90;;;;;;5070319;28;20205;-61
2021/10/18 01:57:36;;;;;;;26.13;17.77;;;11.60;99.90;;;;;;5070420;28;20224;-61
2021/10/18 02:00:04;;;;;;;24.67;16.83;;;11.70;99.90;;;;;;5070661;28;20209;-60
2021/10/18 02:02:31;;;;;;;24.97;16.90;;;11.70;99.90;;;;;;5070633;28;20208;-59
2021/10/18 02:04:58;;;;;;;24.63;17.53;;;11.70;99.90;;;;;;5070349;28;20231;-59
2021/10/18 02:07:24;;;;;;;24.77;17.40;;;11.70;99.90;;;;;;5070435;28;20232;-59
2021/10/18 02:09:52;;;;;;;27.63;17.20;;;11.70;99.90;;;;;;5070740;28;20255;-59
2021/10/18 02:12:20;;;;;;;26.83;17.67;;;11.70;99.90;;;;;;5070405;28;20201;-59
2021/10/18 02:14:47;;;;;;;22.13;15.80;;;11.70;99.90;;;;;;5070389;28;20205;-60
2021/10/18 02:17:14;;;;;;;25.47;17.73;;;11.70;99.90;;;;;;5070300;28;20225;-59
2021/10/18 02:19:41;;;;;;;25.00;16.70;;;11.70;99.90;;;;;;5070188;28;20209;-60
2021/10/18 02:22:07;;;;;;;26.57;16.90;;;11.60;99.90;;;;;;5070211;28;20213;-60
2021/10/18 02:24:34;;;;;;;26.37;17.97;;;11.60;99.90;;;;;;5070016;28;20221;-59
2021/10/18 02:27:01;;;;;;;25.37;17.70;;;11.50;99.90;;;;;;5070304;28;20236;-60
2021/10/18 02:29:29;;;;;;;25.97;17.07;;;11.50;99.90;;;;;;5070548;28;20213;-60
2021/10/18 02:31:55;;;;;;;25.13;17.17;;;11.50;99.90;;;;;;5073931;28;20338;-60
2021/10/18 02:34:22;;;;;;;25.20;17.03;;;11.40;99.90;;;;;;5073775;28;20209;-59
2021/10/18 02:36:49;;;;;;;24.13;16.73;;;11.30;99.90;;;;;;5073859;28;20236;-59
2021/10/18 02:39:15;;;;;;;25.37;16.67;;;11.20;99.90;;;;;;5073525;28;20330;-60
2021/10/18 02:41:42;;;;;;;27.07;18.20;;;11.20;99.90;;;;;;5073977;28;20285;-60
2021/10/18 02:44:09;;;;;;;26.63;17.13;;;11.10;99.90;;;;;;5073268;28;20719;-60
2021/10/18 02:46:38;;;;;;;24.87;17.40;;;11.10;99.90;;;;;;5073632;28;20239;-60
2021/10/18 02:49:04;;;;;;;26.23;17.33;;;11.10;99.90;;;;;;5073689;28;20212;-60
2021/10/18 02:51:31;;;;;;;28.20;17.77;;;11.10;99.90;;;;;;5073659;28;20669;-59
2021/10/18 02:53:58;;;;;;;27.00;16.97;;;11.00;99.90;;;;;;5073320;28;20208;-61
2021/10/18 02:56:24;;;;;;;25.37;16.97;;;11.00;99.90;;;;;;5073570;28;20231;-60
2021/10/18 02:58:51;;;;;;;27.70;17.67;;;11.00;99.90;;;;;;5073435;28;20208;-60
2021/10/18 03:01:18;;;;;;;26.30;16.93;;;11.00;99.90;;;;;;5073406;28;20208;-60
2021/10/18 03:03:46;;;;;;;25.67;17.07;;;10.90;99.90;;;;;;5073147;28;20212;-61
2021/10/18 03:06:12;;;;;;;28.00;18.40;;;10.80;99.90;;;;;;5073080;28;20236;-60
2021/10/18 03:08:40;;;;;;;26.80;17.33;;;10.70;99.90;;;;;;5072903;28;20201;-60
2021/10/18 03:11:06;;;;;;;26.80;17.23;;;10.70;99.90;;;;;;5073253;28;20278;-61
2021/10/18 03:13:33;;;;;;;28.53;17.77;;;10.70;99.90;;;;;;5073235;28;20204;-60
2021/10/18 03:16:00;;;;;;;26.80;17.97;;;10.70;99.90;;;;;;5073022;28;20240;-60
2021/10/18 03:18:26;;;;;;;49.80;38.20;;;10.70;99.90;;;;;;5072981;28;20201;-61
2021/10/18 03:20:54;;;;;;;26.03;17.60;;;10.80;99.90;;;;;;5072874;28;20205;-61
2021/10/18 03:23:21;;;;;;;26.00;18.43;;;10.80;99.90;;;;;;5073057;28;20209;-60
2021/10/18 03:25:48;;;;;;;25.43;17.47;;;10.90;99.90;;;;;;5072733;28;20262;-60
2021/10/18 03:28:14;;;;;;;26.50;17.30;;;10.90;99.90;;;;;;5072735;28;20414;-61
2021/10/18 03:30:41;;;;;;;28.73;17.40;;;10.90;99.90;;;;;;5072709;28;20205;-61
2021/10/18 03:33:08;;;;;;;26.13;16.90;;;11.00;99.90;;;;;;5072622;28;20205;-60
2021/10/18 03:35:35;;;;;;;26.27;17.40;;;11.00;99.90;;;;;;5072347;28;20250;-60
2021/10/18 03:38:03;;;;;;;30.17;20.43;;;11.00;99.90;;;;;;5072176;28;20236;-60
2021/10/18 03:40:30;;;;;;;26.87;17.03;;;11.00;99.90;;;;;;5072428;28;20642;-60
2021/10/18 03:42:56;;;;;;;27.80;17.53;;;10.90;99.90;;;;;;5072338;28;20726;-61
2021/10/18 03:45:23;;;;;;;29.40;19.50;;;11.00;99.90;;;;;;5072060;28;20232;-61
2021/10/18 03:47:50;;;;;;;26.67;17.23;;;11.00;99.90;;;;;;5072159;28;20217;-60
2021/10/18 03:50:16;;;;;;;24.63;17.13;;;11.00;99.90;;;;;;5072460;28;20258;-60
2021/10/18 03:52:43;;;;;;;25.37;17.00;;;10.90;99.90;;;;;;5072386;28;20205;-61
2021/10/18 03:55:12;;;;;;;23.33;16.17;;;10.80;99.90;;;;;;5072172;28;20205;-61
2021/10/18 03:57:39;;;;;;;26.23;17.33;;;10.80;99.90;;;;;;5072148;28;20255;-60
2021/10/18 04:00:07;;;;;;;24.40;16.20;;;10.90;99.90;;;;;;5071956;28;20557;-60
2021/10/18 04:02:34;;;;;;;28.30;19.00;;;10.90;99.90;;;;;;5071849;28;20580;-60
2021/10/18 04:05:01;;;;;;;28.80;19.23;;;10.90;99.90;;;;;;5071936;28;20230;-61
2021/10/18 04:07:27;;;;;;;23.73;15.87;;;10.90;99.90;;;;;;5072101;28;20224;-61
2021/10/18 04:09:54;;;;;;;21.37;14.40;;;10.90;99.90;;;;;;5071976;28;20211;-60
2021/10/18 04:12:22;;;;;;;25.73;18.03;;;10.80;99.90;;;;;;5072021;28;20212;-60
2021/10/18 04:14:49;;;;;;;23.20;16.43;;;10.70;99.90;;;;;;5071747;28;20205;-60
2021/10/18 04:17:15;;;;;;;24.17;16.77;;;10.80;99.90;;;;;;5071464;28;20224;-61
2021/10/18 04:19:42;;;;;;;28.43;18.83;;;10.90;99.90;;;;;;5071613;28;20205;-60
2021/10/18 04:22:09;;;;;;;23.77;16.00;;;10.90;99.90;;;;;;5071669;28;20215;-60
2021/10/18 04:24:35;;;;;;;23.80;15.83;;;10.90;99.90;;;;;;5071613;28;20248;-60
2021/10/18 04:27:02;;;;;;;25.90;16.30;;;10.90;99.90;;;;;;5071920;28;20633;-60
2021/10/18 04:29:30;;;;;;;23.73;16.23;;;10.50;99.90;;;;;;5071363;28;20212;-60
2021/10/18 04:31:58;;;;;;;22.93;16.37;;;10.40;99.90;;;;;;5071539;28;20212;-60
2021/10/18 04:34:25;;;;;;;24.30;16.63;;;10.50;99.90;;;;;;5071437;28;20200;-60
2021/10/18 04:36:52;;;;;;;22.53;14.50;;;10.60;99.90;;;;;;5071591;28;20276;-61
2021/10/18 04:39:19;;;;;;;24.47;15.60;;;10.50;99.90;;;;;;5071466;28;20216;-61
2021/10/18 04:41:46;;;;;;;26.93;17.87;;;10.50;99.90;;;;;;5071335;28;20499;-61
2021/10/18 04:44:13;;;;;;;23.50;15.47;;;10.50;99.90;;;;;;5070787;28;20209;-60
2021/10/18 04:46:41;;;;;;;23.23;16.33;;;10.50;99.90;;;;;;5071300;28;21193;-60
2021/10/18 04:49:08;;;;;;;21.43;15.27;;;10.50;99.90;;;;;;5071171;28;20676;-60
2021/10/18 04:51:35;;;;;;;22.70;15.00;;;10.60;99.90;;;;;;5071235;28;20220;-61
2021/10/18 04:54:02;;;;;;;22.17;15.43;;;10.70;99.90;;;;;;5070324;28;20212;-60
2021/10/18 04:56:28;;;;;;;23.13;15.73;;;10.80;99.90;;;;;;5071041;28;20224;-61
2021/10/18 04:58:55;;;;;;;21.30;14.67;;;10.90;99.90;;;;;;5070582;28;20209;-60
2021/10/18 05:01:22;;;;;;;23.77;16.20;;;10.90;99.90;;;;;;5070923;28;20209;-60
2021/10/18 05:03:50;;;;;;;22.27;14.47;;;10.90;99.90;;;;;;5070677;28;20209;-61
2021/10/18 05:06:16;;;;;;;21.77;14.07;;;10.90;99.90;;;;;;5070712;28;20240;-61
2021/10/18 05:08:43;;;;;;;22.67;14.93;;;10.60;99.90;;;;;;5070487;28;20224;-61
2021/10/18 05:11:10;;;;;;;24.23;16.10;;;10.40;99.90;;;;;;5070722;28;20673;-60
2021/10/18 05:13:36;;;;;;;22.17;15.40;;;10.50;99.90;;;;;;5070445;28;20236;-61
2021/10/18 05:16:04;;;;;;;23.80;16.23;;;10.60;99.90;;;;;;5070832;28;20224;-60
2021/10/18 05:18:30;;;;;;;24.07;16.30;;;10.70;99.90;;;;;;5070866;28;20201;-62
2021/10/18 05:21:00;;;;;;;23.63;16.00;;;10.70;99.90;;;;;;5070799;28;20232;-61
2021/10/18 05:23:27;;;;;;;24.50;16.43;;;10.80;99.90;;;;;;5070762;28;20299;-60
2021/10/18 05:25:53;;;;;;;23.63;15.63;;;10.80;99.90;;;;;;5070503;28;20217;-60
2021/10/18 05:28:20;;;;;;;24.80;17.03;;;10.90;99.90;;;;;;5070532;28;20274;-60
2021/10/18 05:30:46;;;;;;;23.63;15.33;;;10.90;99.90;;;;;;5070959;28;20228;-62
2021/10/18 05:33:14;;;;;;;26.50;16.57;;;10.90;99.90;;;;;;5070674;28;20208;-60
2021/10/18 05:35:41;;;;;;;24.13;16.20;;;11.00;99.90;;;;;;5070495;28;20200;-61
2021/10/18 05:38:09;;;;;;;25.60;17.00;;;11.00;99.90;;;;;;5070455;28;20216;-60
2021/10/18 05:40:36;;;;;;;30.10;19.17;;;11.00;99.90;;;;;;5070379;28;20211;-60
2021/10/18 05:43:02;;;;;;;27.60;16.37;;;11.00;99.90;;;;;;5070463;28;20208;-60
2021/10/18 05:45:33;;;;;;;23.40;16.03;;;11.00;99.90;;;;;;5070486;28;20232;-62
2021/10/18 05:48:02;;;;;;;24.97;16.57;;;10.70;99.90;;;;;;5070560;28;20221;-60
2021/10/18 05:50:31;;;;;;;27.83;17.30;;;10.60;99.90;;;;;;5070675;28;20605;-60
2021/10/18 05:52:58;;;;;;;26.00;17.27;;;10.60;99.90;;;;;;5070779;28;20201;-61
2021/10/18 05:55:26;;;;;;;27.53;17.30;;;10.80;99.90;;;;;;5070521;28;20216;-60
2021/10/18 05:57:55;;;;;;;27.47;17.13;;;10.80;99.90;;;;;;5070630;28;20232;-61
2021/10/18 06:00:23;;;;;;;23.57;16.40;;;10.80;99.90;;;;;;5070765;28;20669;-61
2021/10/18 06:02:50;;;;;;;24.43;16.27;;;10.90;99.90;;;;;;5071044;28;20577;-62
2021/10/18 06:05:17;;;;;;;25.23;16.57;;;11.00;99.90;;;;;;5073491;28;20228;-60
2021/10/18 06:07:44;;;;;;;25.47;17.60;;;11.00;99.90;;;;;;5073976;28;20225;-61
2021/10/18 06:10:12;;;;;;;25.20;16.93;;;11.10;99.90;;;;;;5074217;28;20239;-60
2021/10/18 06:12:41;;;;;;;24.23;16.77;;;11.10;99.90;;;;;;5074324;28;20208;-59
2021/10/18 06:15:09;;;;;;;23.27;16.80;;;10.90;99.90;;;;;;5073970;28;20204;-60
2021/10/18 06:17:38;;;;;;;23.27;16.07;;;10.80;99.90;;;;;;5074101;28;20236;-61
2021/10/18 06:20:06;;;;;;;22.03;15.00;;;10.90;99.90;;;;;;5073445;28;20216;-60
2021/10/18 06:22:33;;;;;;;27.30;16.50;;;11.00;99.90;;;;;;5074077;28;20647;-60
2021/10/18 06:24:59;;;;;;;24.10;15.77;;;11.10;99.90;;;;;;5073654;28;20580;-60
2021/10/18 06:27:26;;;;;;;26.17;16.27;;;11.20;99.90;;;;;;5073669;28;20229;-61
2021/10/18 06:29:54;;;;;;;27.00;17.73;;;11.30;99.90;;;;;;5073544;28;20703;-60
2021/10/18 06:32:21;;;;;;;25.27;16.57;;;11.40;99.90;;;;;;5073638;28;20235;-60
2021/10/18 06:34:47;;;;;;;25.20;16.13;;;11.40;99.90;;;;;;5073518;28;20401;-61
2021/10/18 06:37:14;;;;;;;24.93;15.37;;;11.30;99.90;;;;;;5074055;28;20241;-62
2021/10/18 06:39:41;;;;;;;22.30;15.93;;;11.00;99.90;;;;;;5073643;28;20213;-61
2021/10/18 06:42:08;;;;;;;24.03;16.50;;;10.70;99.90;;;;;;5073453;28;20231;-61
2021/10/18 06:44:35;;;;;;;24.77;16.70;;;10.70;99.90;;;;;;5073171;28;20204;-61
2021/10/18 06:47:04;;;;;;;26.17;17.23;;;10.80;99.90;;;;;;5073251;28;20229;-62
2021/10/18 06:49:30;;;;;;;25.80;17.83;;;11.00;99.90;;;;;;5072791;28;20593;-61
2021/10/18 06:51:58;;;;;;;23.83;16.63;;;11.00;99.90;;;;;;5073308;28;20212;-62
2021/10/18 06:54:34;;;;;;;22.77;15.90;;;11.00;99.90;;;;;;5073038;28;20637;-61
2021/10/18 06:57:00;;;;;;;25.97;16.60;;;10.90;99.90;;;;;;5073049;28;20220;-62
2021/10/18 06:59:27;;;;;;;23.37;16.23;;;10.60;99.90;;;;;;5073137;28;20208;-62
2021/10/18 07:01:54;;;;;;;24.97;17.13;;;10.40;99.90;;;;;;5072981;28;20356;-62
2021/10/18 07:04:23;;;;;;;26.00;17.20;;;10.60;99.90;;;;;;5073371;28;20235;-60
2021/10/18 07:06:49;;;;;;;22.70;15.67;;;10.90;99.90;;;;;;5073088;28;20268;-62
2021/10/18 07:09:16;;;;;;;22.57;16.33;;;11.10;99.90;;;;;;5073139;28;20208;-62
2021/10/18 07:11:43;;;;;;;24.43;16.20;;;11.10;99.90;;;;;;5073181;28;20209;-62
2021/10/18 07:14:09;;;;;;;27.80;17.17;;;11.00;99.90;;;;;;5073155;28;20220;-61
2021/10/18 07:16:36;;;;;;;28.30;18.63;;;11.00;99.90;;;;;;5072885;28;20221;-61
2021/10/18 07:19:03;;;;;;;24.97;17.40;;;11.20;99.90;;;;;;5072563;28;20205;-61
2021/10/18 07:21:31;;;;;;;26.60;18.07;;;11.40;99.90;;;;;;5072882;28;20606;-61
2021/10/18 07:24:02;;;;;;;25.53;17.10;;;11.50;99.90;;;;;;5073103;28;20209;-61
2021/10/18 07:26:30;;;;;;;26.67;17.97;;;11.70;99.90;;;;;;5072719;28;20232;-61
2021/10/18 07:28:57;;;;;;;25.03;17.70;;;11.70;99.90;;;;;;5072589;28;20205;-61
2021/10/18 07:31:24;;;;;;;30.37;18.33;;;11.80;99.90;;;;;;5073150;28;20208;-61
2021/10/18 07:33:50;;;;;;;26.17;17.93;;;12.00;99.90;;;;;;5072753;28;20258;-61
2021/10/18 07:36:23;;;;;;;24.90;16.63;;;11.90;99.90;;;;;;5072755;28;20235;-60
2021/10/18 07:38:52;;;;;;;21.70;16.23;;;11.90;99.90;;;;;;5072986;28;20216;-62
2021/10/18 07:41:19;;;;;;;24.00;17.53;;;12.00;99.90;;;;;;5072542;28;20212;-61
2021/10/18 07:43:47;;;;;;;21.07;16.80;;;12.00;99.90;;;;;;5072555;28;20216;-61
2021/10/18 07:46:14;;;;;;;24.80;17.93;;;12.10;99.90;;;;;;5072292;28;20225;-61
2021/10/18 07:48:40;;;;;;;23.93;17.97;;;12.20;99.90;;;;;;5072454;28;20207;-60
2021/10/18 07:51:07;;;;;;;23.43;17.60;;;12.20;99.90;;;;;;5072386;28;20205;-60
2021/10/18 07:53:34;;;;;;;23.23;17.57;;;12.30;99.90;;;;;;5072050;28;20211;-61
2021/10/18 07:56:02;;;;;;;23.43;18.43;;;12.30;99.90;;;;;;5071809;28;21938;-62
2021/10/18 07:58:28;;;;;;;23.63;18.37;;;12.50;99.90;;;;;;5072273;28;20204;-61
2021/10/18 08:00:55;;;;;;;26.43;17.40;;;12.60;99.90;;;;;;5072247;28;20258;-61
2021/10/18 08:03:22;;;;;;;23.63;18.27;;;12.60;99.90;;;;;;5072150;28;20201;-61
2021/10/18 08:05:50;;;;;;;23.67;18.47;;;12.70;99.90;;;;;;5071998;28;20252;-61
2021/10/18 08:08:21;;;;;;;32.17;19.13;;;12.70;99.90;;;;;;5072047;28;20847;-61
2021/10/18 08:10:48;;;;;;;21.80;17.77;;;12.80;99.90;;;;;;5072063;28;20193;-61
2021/10/18 08:13:16;;;;;;;23.23;17.37;;;12.80;99.90;;;;;;5072087;28;20239;-60
2021/10/18 08:15:43;;;;;;;24.13;17.43;;;12.80;99.90;;;;;;5071593;28;20203;-60
2021/10/18 08:18:09;;;;;;;22.97;17.27;;;12.90;99.90;;;;;;5072015;28;20799;-60
2021/10/18 08:20:37;;;;;;;22.60;17.57;;;13.00;99.90;;;;;;5071746;28;20205;-60
2021/10/18 08:23:04;;;;;;;21.47;17.00;;;13.10;99.90;;;;;;5071644;28;20303;-60
2021/10/18 08:25:31;;;;;;;23.87;17.27;;;13.10;99.90;;;;;;5071670;28;20205;-61
2021/10/18 08:27:57;;;;;;;25.33;17.10;;;13.20;99.90;;;;;;5070700;28;20229;-60
2021/10/18 08:30:25;;;;;;;21.80;16.77;;;13.10;99.90;;;;;;5071757;28;20211;-61
2021/10/18 08:32:52;;;;;;;21.40;17.00;;;13.20;99.90;;;;;;5071499;28;20208;-61
2021/10/18 08:35:19;;;;;;;23.47;17.87;;;13.30;99.90;;;;;;5071434;28;20262;-61
2021/10/18 08:40:31;;;;;;;21.10;17.37;;;13.40;99.90;;;;;;5071526;28;20245;-60
2021/10/18 08:43:02;;;;;;;20.97;16.43;;;13.30;99.90;;;;;;5071483;28;20208;-60
2021/10/18 08:45:30;;;;;;;21.73;16.60;;;13.20;99.90;;;;;;5071311;28;20209;-61
2021/10/18 08:47:57;;;;;;;21.03;16.77;;;13.10;99.90;;;;;;5071967;28;20240;-61
2021/10/18 08:50:26;;;;;;;20.57;15.97;;;13.10;99.90;;;;;;5071903;28;20205;-61
2021/10/18 08:52:53;;;;;;;21.63;16.87;;;13.10;99.90;;;;;;5071490;28;20209;-60
2021/10/18 08:55:20;;;;;;;21.00;16.07;;;13.10;99.90;;;;;;5070919;28;20216;-66
2021/10/18 08:57:47;;;;;;;21.73;16.90;;;13.10;99.90;;;;;;5071083;28;20221;-60
2021/10/18 09:00:38;;;;;;;34.50;25.87;;;13.00;99.90;;;;;;5071228;28;20200;-61
2021/10/18 09:03:15;;;;;;;23.83;16.87;;;13.00;99.90;;;;;;5070961;28;20716;-61
2021/10/18 09:05:43;;;;;;;22.07;16.70;;;13.20;99.90;;;;;;5071011;28;20229;-61
2021/10/18 09:08:10;;;;;;;18.83;15.73;;;13.30;99.90;;;;;;5070901;28;20213;-61
2021/10/18 09:10:36;;;;;;;22.83;15.40;;;13.40;99.90;;;;;;5070982;28;20453;-61
2021/10/18 09:13:09;;;;;;;21.70;15.97;;;13.50;99.90;;;;;;5070902;28;20213;-61
2021/10/18 09:15:38;;;;;;;21.13;16.63;;;13.50;99.90;;;;;;5071035;28;20213;-61
2021/10/18 09:18:05;;;;;;;21.53;15.80;;;13.30;99.90;;;;;;5070804;28;20735;-61
2021/10/18 09:20:35;;;;;;;23.37;16.60;;;13.10;99.90;;;;;;5070876;28;20616;-61
2021/10/18 09:23:23;;;;;;;19.60;15.67;;;13.10;99.90;;;;;;5071198;28;20628;-61
2021/10/18 09:25:50;;;;;;;26.63;18.37;;;12.90;99.90;;;;;;5071210;28;20209;-61
2021/10/18 09:28:22;;;;;;;21.17;16.23;;;12.80;99.90;;;;;;5071205;28;20224;-61
2021/10/18 09:30:50;;;;;;;22.27;16.20;;;12.90;99.90;;;;;;5070975;28;20205;-61
2021/10/18 09:33:21;;;;;;;23.63;15.93;;;12.90;99.90;;;;;;5070816;28;20483;-63
2021/10/18 09:35:49;;;;;;;19.43;15.97;;;13.00;99.90;;;;;;5071236;28;20213;-59
2021/10/18 09:38:17;;;;;;;20.07;15.23;;;13.00;99.90;;;;;;5071519;28;20210;-61
2021/10/18 09:40:45;;;;;;;23.40;15.97;;;13.10;99.90;;;;;;5075521;28;20740;-61
2021/10/18 09:43:17;;;;;;;21.37;15.80;;;13.10;99.90;;;;;;5075829;28;20247;-65
2021/10/18 09:46:08;;;;;;;22.20;16.13;;;13.20;99.90;;;;;;5075008;28;20208;-68
2021/10/18 10:51:14;;;;;;;19.63;13.93;;;13.90;99.90;;;;;;5072747;28;20196;-60
2021/10/18 10:53:52;;;;;;;17.73;13.97;;;14.10;99.90;;;;;;5073699;28;20262;-60
2021/10/18 10:56:29;;;;;;;18.53;13.27;;;14.20;99.90;;;;;;5073112;28;20601;-60
2021/10/18 10:59:01;;;;;;;17.97;14.63;;;14.40;99.90;;;;;;5073209;28;20608;-60
2021/10/18 11:01:47;;;;;;;17.50;13.53;;;14.60;99.90;;;;;;5072977;28;20219;-62
2021/10/18 11:04:43;;;;;;;20.33;14.20;;;14.80;99.90;;;;;;5072783;28;20204;-61
2021/10/18 11:07:14;;;;;;;16.97;12.20;;;14.90;99.90;;;;;;5072678;28;20229;-60
2021/10/18 11:09:42;;;;;;;16.00;11.87;;;15.10;99.90;;;;;;5072469;28;20205;-60
2021/10/18 11:12:18;;;;;;;18.63;13.17;;;15.00;99.90;;;;;;5073241;28;20209;-60
2021/10/18 11:14:51;;;;;;;16.63;12.70;;;14.90;99.90;;;;;;5072940;28;20205;-60
2021/10/18 11:17:18;;;;;;;15.77;11.77;;;14.90;99.90;;;;;;5072838;28;20727;-61
2021/10/18 11:19:52;;;;;;;15.03;11.97;;;14.90;99.90;;;;;;5072736;28;20201;-61
2021/10/18 11:22:27;;;;;;;15.03;11.60;;;15.00;99.90;;;;;;5072746;28;20699;-60
2021/10/18 11:24:53;;;;;;;15.70;11.70;;;15.10;99.90;;;;;;5073198;28;20211;-60
2021/10/18 11:27:24;;;;;;;14.73;11.57;;;15.20;99.90;;;;;;5072823;28;20232;-60
2021/10/18 11:29:56;;;;;;;18.47;12.70;;;15.20;99.90;;;;;;5072406;28;20298;-60
2021/10/18 11:32:25;;;;;;;15.93;12.00;;;15.30;99.90;;;;;;5072566;28;20209;-61
2021/10/18 11:35:04;;;;;;;15.63;12.00;;;15.50;99.90;;;;;;5072338;28;20232;-60
2021/10/18 11:37:47;;;;;;;17.20;13.00;;;15.70;99.90;;;;;;5072493;28;20236;-60
2021/10/18 11:40:14;;;;;;;16.80;11.00;;;15.80;99.90;;;;;;5072348;28;20680;-60
2021/10/18 11:42:48;;;;;;;15.53;11.70;;;15.90;99.90;;;;;;5071007;28;20217;-60
2021/10/18 11:45:18;;;;;;;16.73;12.07;;;15.80;99.90;;;;;;5071966;28;20605;-61
2021/10/18 11:47:44;;;;;;;15.40;10.80;;;15.60;99.90;;;;;;5072231;28;20307;-61
2021/10/18 11:50:17;;;;;;;15.23;11.53;;;15.20;99.90;;;;;;5072148;28;20627;-61
2021/10/18 11:53:00;;;;;;;12.63;10.57;;;14.90;99.90;;;;;;5072194;28;20412;-61
2021/10/18 11:55:29;;;;;;;12.87;10.73;;;14.80;99.90;;;;;;5071869;28;20207;-61
2021/10/18 11:57:58;;;;;;;14.43;11.40;;;14.60;99.90;;;;;;5072508;28;20590;-60
2021/10/18 12:00:28;;;;;;;15.33;11.13;;;14.50;99.90;;;;;;5072701;28;20254;-61
2021/10/18 12:03:01;;;;;;;13.67;10.53;;;14.50;99.90;;;;;;5072924;28;20205;-62
2021/10/18 12:05:36;;;;;;;11.70;9.60;;;14.60;99.90;;;;;;5072669;28;20231;-64
2021/10/18 12:08:05;;;;;;;13.97;10.63;;;14.60;99.90;;;;;;5072174;28;20227;-62
2021/10/18 12:10:33;;;;;;;15.90;10.87;;;14.60;99.90;;;;;;5073006;28;20247;-59
2021/10/18 12:13:20;;;;;;;14.43;11.30;;;14.80;99.90;;;;;;5072439;28;20590;-63
2021/10/18 12:15:57;;;;;;;14.67;11.10;;;15.00;99.90;;;;;;5071749;28;20208;-62
2021/10/18 12:18:26;;;;;;;13.83;10.47;;;15.20;99.90;;;;;;5071664;28;20660;-63
2021/10/18 12:20:56;;;;;;;15.27;9.97;;;15.10;99.90;;;;;;5072079;28;20204;-62
2021/10/18 12:23:27;;;;;;;14.00;10.80;;;15.10;99.90;;;;;;5072095;28;20209;-61
2021/10/18 12:26:11;;;;;;;13.37;10.47;;;15.30;99.90;;;;;;5071671;28;20228;-63
2021/10/18 12:28:41;;;;;;;13.87;9.43;;;15.50;99.90;;;;;;5071353;28;20228;-63
2021/10/18 12:31:24;;;;;;;11.47;9.83;;;15.60;99.90;;;;;;5071215;28;20684;-63
2021/10/18 12:34:00;;;;;;;12.47;9.53;;;15.80;99.90;;;;;;5071059;28;20236;-63
2021/10/18 12:36:28;;;;;;;13.27;10.13;;;15.80;99.90;;;;;;5071423;28;20228;-63
2021/10/18 12:38:56;;;;;;;12.10;10.00;;;15.90;99.90;;;;;;5070438;28;20646;-62
2021/10/18 12:41:23;;;;;;;13.70;10.30;;;16.10;99.90;;;;;;5071233;28;20568;-63
2021/10/18 12:43:51;;;;;;;12.17;9.73;;;16.20;99.90;;;;;;5070993;28;20211;-63
2021/10/18 12:46:20;;;;;;;13.57;10.37;;;16.30;99.90;;;;;;5071095;28;20225;-63
2021/10/18 12:48:58;;;;;;;12.63;9.70;;;16.30;99.90;;;;;;5070900;28;20228;-62
2021/10/18 12:51:32;;;;;;;12.57;8.70;;;16.30;99.90;;;;;;5071012;28;20241;-63
2021/10/18 12:54:21;;;;;;;13.00;9.20;;;16.30;99.90;;;;;;5070435;28;20262;-63
2021/10/18 12:57:04;;;;;;;10.97;9.10;;;16.60;99.90;;;;;;5071075;28;20224;-63
2021/10/18 12:59:32;;;;;;;13.90;9.13;;;16.60;99.90;;;;;;5070793;28;20212;-63
2021/10/18 13:02:32;;;;;;;11.50;9.53;;;16.70;99.90;;;;;;5070724;28;20205;-63
2021/10/18 13:05:13;;;;;;;11.37;9.47;;;16.80;99.90;;;;;;5070581;28;20216;-62
2021/10/18 13:07:43;;;;;;;11.87;9.03;;;16.90;99.90;;;;;;5070627;28;20318;-62
2021/10/18 13:10:13;;;;;;;12.87;10.93;;;17.00;99.90;;;;;;5070703;28;20405;-63
2021/10/18 13:12:40;;;;;;;11.63;9.47;;;17.10;99.90;;;;;;5070293;28;20200;-62
2021/10/18 13:15:08;;;;;;;12.87;8.77;;;17.20;99.90;;;;;;5070400;28;20566;-61
2021/10/18 13:17:34;;;;;;;13.57;9.67;;;17.20;99.90;;;;;;5070980;28;20225;-61
2021/10/18 13:20:01;;;;;;;12.70;9.03;;;17.30;99.90;;;;;;5070515;28;20228;-61
2021/10/18 13:22:28;;;;;;;12.33;9.43;;;17.20;99.90;;;;;;5070491;28;20209;-61
2021/10/18 13:24:55;;;;;;;10.67;9.03;;;17.20;99.90;;;;;;5070314;28;20235;-62
2021/10/18 13:27:23;;;;;;;12.83;9.70;;;17.40;99.90;;;;;;5070405;28;21158;-62
2021/10/18 13:29:49;;;;;;;11.20;8.53;;;17.50;99.90;;;;;;5070589;28;20227;-63
2021/10/18 13:32:17;;;;;;;11.10;8.70;;;17.70;99.90;;;;;;5070882;28;20204;-62
2021/10/18 13:34:45;;;;;;;11.60;9.33;;;17.70;99.90;;;;;;5070779;28;20273;-61
2021/10/18 13:37:12;;;;;;;10.93;8.50;;;17.70;99.90;;;;;;5070228;28;20259;-63
2021/10/18 13:39:39;;;;;;;14.03;8.77;;;17.70;99.90;;;;;;5070084;28;20692;-62
2021/10/18 13:42:06;;;;;;;10.17;8.80;;;17.80;99.90;;;;;;5070881;28;20208;-62